| time (UTC) | temp F | wind direction | speed MPH | gust MPH | rain 1hr in | rain 24hr in | rain mn in | humidity % | barometer mb |
| 20260505124601 | 39 | 298 | 5.0 | 8.0 | 0.00 | 0.00 | 0.00 | 74 | 1010.7 |
| 20260505123104 | 38 | 293 | 6.0 | 8.0 | 0.00 | 0.00 | 0.00 | 75 | 1010.6 |
| 20260505121556 | 37 | 295 | 3.0 | 7.0 | 0.00 | 0.00 | 0.00 | 75 | 1010.5 |
| 20260505120052 | 36 | 292 | 4.0 | 7.0 | 0.00 | 0.00 | 0.00 | 77 | 1010.3 |
| 20260505114549 | 34 | 296 | 4.0 | 5.0 | 0.00 | 0.00 | 0.00 | 77 | 1010.3 |
| 20260505113045 | 33 | 300 | 4.0 | 5.0 | 0.00 | 0.00 | 0.00 | 77 | 1009.8 |
| 20260505111542 | 33 | 279 | 3.0 | 7.0 | 0.00 | 0.00 | 0.00 | 76 | 1009.4 |
| 20260505101536 | 34 | 306 | 4.0 | 5.0 | 0.00 | 0.00 | 0.00 | 74 | 1008.9 |
| 20260505100030 | 35 | 311 | 3.0 | 6.0 | 0.00 | 0.00 | 0.00 | 73 | 1008.9 |
| 20260505094526 | 36 | 315 | 3.0 | 6.0 | 0.00 | 0.00 | 0.00 | 71 | 1008.9 |
| 20260505093034 | 38 | 315 | 2.0 | 6.0 | 0.00 | 0.00 | 0.00 | 69 | 1008.6 |
| 20260505091525 | 38 | 317 | 3.0 | 9.0 | 0.00 | 0.00 | 0.00 | 70 | 1008.6 |
| 20260505090021 | 37 | 313 | 5.0 | 8.0 | 0.00 | 0.00 | 0.00 | 70 | 1008.6 |
| 20260505084519 | 38 | 307 | 5.0 | 9.0 | 0.00 | 0.00 | 0.00 | 69 | 1008.6 |
| 20260505083022 | 38 | 321 | 4.0 | 8.0 | 0.00 | 0.00 | 0.00 | 69 | 1008.6 |
| 20260505081515 | 39 | 332 | 3.0 | 6.0 | 0.00 | 0.00 | 0.00 | 67 | 1008.5 |
| 20260505080012 | 39 | 336 | 2.0 | 4.0 | 0.00 | 0.00 | 0.00 | 67 | 1008.3 |
| 20260505074510 | 39 | 336 | 3.0 | 5.0 | 0.00 | 0.00 | 0.00 | 68 | 1008.2 |
| 20260505073011 | 39 | 336 | 3.0 | 5.0 | 0.00 | 0.00 | 0.00 | 68 | 1008.2 |
| 20260505071508 | 39 | 339 | 2.0 | 5.0 | 0.00 | 0.00 | 0.00 | 67 | 1008.1 |
| 20260505070007 | 38 | 345 | 2.0 | 4.0 | 0.00 | 0.00 | 0.00 | 69 | 1008.0 |
| 20260505064504 | 39 | 345 | 3.0 | 5.0 | 0.00 | 0.00 | 0.00 | 68 | 1008.0 |
| 20260505063002 | 40 | 345 | 2.0 | 4.0 | 0.00 | 0.00 | 0.00 | 66 | 1007.8 |
| 20260505061639 | 40 | 345 | 2.0 | 4.0 | 0.00 | 0.00 | 0.00 | 67 | 1007.8 |
| 20260505060103 | 40 | 345 | 0.0 | 2.0 | 0.00 | 0.00 | 0.00 | 66 | 1007.9 |
| 20260505054555 | 41 | 345 | 0.0 | 3.0 | 0.00 | 0.00 | 0.00 | 64 | 1008.0 |
| 20260505053052 | 42 | 347 | 3.0 | 5.0 | 0.00 | 0.00 | 0.00 | 63 | 1007.8 |
| 20260505051609 | 43 | 339 | 2.0 | 4.0 | 0.00 | 0.00 | 0.00 | 61 | 1007.7 |
| 20260505041543 | 47 | 321 | 4.0 | 6.0 | 0.00 | 0.00 | 0.00 | 56 | 1007.9 |
| 20260505040039 | 47 | 360 | 4.0 | 8.0 | 0.00 | 0.00 | 0.00 | 55 | 1007.7 |
| 20260505034637 | 48 | 316 | 4.0 | 8.0 | 0.00 | 0.00 | 0.00 | 54 | 1007.8 |
| 20260505033033 | 48 | 322 | 4.0 | 8.0 | 0.00 | 0.00 | 0.00 | 54 | 1007.7 |
| 20260505031531 | 49 | 323 | 5.0 | 9.0 | 0.00 | 0.00 | 0.00 | 53 | 1007.5 |
| 20260505030032 | 49 | 321 | 4.0 | 9.0 | 0.00 | 0.00 | 0.00 | 52 | 1007.5 |
| 20260505024528 | 49 | 323 | 4.0 | 10.0 | 0.00 | 0.00 | 0.00 | 52 | 1007.3 |
| 20260505023027 | 50 | 320 | 4.0 | 10.0 | 0.00 | 0.00 | 0.00 | 50 | 1007.2 |
| 20260505021525 | 50 | 325 | 7.0 | 12.0 | 0.00 | 0.00 | 0.00 | 49 | 1007.0 |
| 20260505020023 | 51 | 312 | 9.0 | 16.0 | 0.00 | 0.00 | 0.00 | 48 | 1006.9 |
| 20260505014522 | 51 | 309 | 10.0 | 17.0 | 0.00 | 0.00 | 0.00 | 48 | 1006.6 |
| 20260505013020 | 51 | 330 | 13.0 | 20.0 | 0.00 | 0.00 | 0.00 | 48 | 1006.4 |
| 20260505011518 | 51 | 306 | 12.0 | 20.0 | 0.00 | 0.00 | 0.00 | 48 | 1006.3 |
| 20260505010017 | 52 | 310 | 14.0 | 22.0 | 0.00 | 0.00 | 0.00 | 47 | 1006.2 |
| 20260505004514 | 52 | 308 | 16.0 | 27.0 | 0.00 | 0.00 | 0.00 | 47 | 1005.9 |
| 20260505003020 | 53 | 360 | 21.0 | 32.0 | 0.00 | 0.00 | 0.00 | 47 | 1005.5 |
| 20260505001508 | 54 | 311 | 20.0 | 29.0 | 0.00 | 0.00 | 0.00 | 48 | 1005.1 |
| 20260505000008 | 55 | 309 | 21.0 | 32.0 | 0.00 | 0.00 | 0.00 | 44 | 1004.8 |
| 20260504234504 | 55 | 309 | 17.0 | 24.0 | 0.00 | 0.00 | 0.00 | 46 | 1004.6 |
| 20260504233005 | 55 | 304 | 15.0 | 28.0 | 0.00 | 0.00 | 0.00 | 46 | 1004.6 |
| 20260504231501 | 56 | 360 | 20.0 | 28.0 | 0.00 | 0.00 | 0.00 | 44 | 1004.6 |
| 20260504230100 | 56 | 305 | 18.0 | 27.0 | 0.00 | 0.00 | 0.00 | 44 | 1004.4 |
| 20260504230002 | 56 | 306 | 18.0 | 27.0 | 0.00 | 0.00 | 0.00 | 44 | 1004.4 |
| 20260504224600 | 56 | 304 | 20.0 | 33.0 | 0.00 | 0.00 | 0.00 | 43 | 1004.2 |
| 20260504223058 | 56 | 291 | 21.0 | 33.0 | 0.00 | 0.00 | 0.00 | 44 | 1004.1 |
| 20260504221556 | 57 | 295 | 21.0 | 30.0 | 0.00 | 0.00 | 0.00 | 42 | 1004.0 |
| 20260504220055 | 57 | 298 | 19.0 | 30.0 | 0.00 | 0.00 | 0.00 | 47 | 1003.9 |
| 20260504214556 | 56 | 289 | 18.0 | 30.0 | 0.00 | 0.00 | 0.00 | 47 | 1003.8 |
| 20260504213053 | 58 | 360 | 23.0 | 31.0 | 0.00 | 0.00 | 0.00 | 43 | 1003.6 |
| 20260504211552 | 60 | 360 | 18.0 | 33.0 | 0.00 | 0.00 | 0.00 | 42 | 1003.1 |
| 20260504210105 | 60 | 306 | 20.0 | 31.0 | 0.00 | 0.00 | 0.00 | 40 | 1002.8 |
| 20260504204651 | 61 | 310 | 20.0 | 30.0 | 0.00 | 0.00 | 0.00 | 39 | 1002.8 |
| 20260504203103 | 62 | 310 | 20.0 | 29.0 | 0.00 | 0.00 | 0.00 | 37 | 1002.7 |
| 20260504201548 | 63 | 298 | 22.0 | 32.0 | 0.00 | 0.00 | 0.00 | 35 | 1002.5 |
| 20260504200048 | 64 | 310 | 21.0 | 37.0 | 0.00 | 0.00 | 0.00 | 35 | 1002.4 |
| 20260504194550 | 65 | 306 | 20.0 | 32.0 | 0.00 | 0.00 | 0.00 | 38 | 1002.1 |
| 20260504193049 | 65 | 360 | 19.0 | 30.0 | 0.00 | 0.00 | 0.00 | 38 | 1002.1 |
| 20260504191545 | 66 | 299 | 19.0 | 26.0 | 0.00 | 0.00 | 0.00 | 37 | 1002.0 |
| 20260504190107 | 66 | 360 | 20.0 | 30.0 | 0.00 | 0.00 | 0.00 | 36 | 1002.0 |
| 20260504184544 | 67 | 333 | 22.0 | 27.0 | 0.00 | 0.00 | 0.00 | 36 | 1001.9 |
| 20260504183043 | 67 | 360 | 16.0 | 33.0 | 0.00 | 0.00 | 0.00 | 35 | 1001.9 |
| 20260504181542 | 66 | 312 | 17.0 | 26.0 | 0.00 | 0.00 | 0.00 | 36 | 1001.8 |
| 20260504180041 | 66 | 298 | 18.0 | 31.0 | 0.00 | 0.00 | 0.00 | 36 | 1001.5 |
| 20260504174539 | 66 | 294 | 18.0 | 28.0 | 0.00 | 0.00 | 0.00 | 37 | 1001.3 |
| 20260504173037 | 66 | 340 | 17.0 | 26.0 | 0.00 | 0.00 | 0.00 | 37 | 1001.1 |
| 20260504171535 | 65 | 313 | 13.0 | 24.0 | 0.00 | 0.00 | 0.00 | 39 | 1001.1 |